KPRO/PRO METAR and TAF weather

Enter ICAO airport designator
Station Type Date Time Source
KPRO METAR 2021/05/14 21:55 UTC NOAA

KPRO 142155Z AUTO 14013KT 10SM BKN050 BKN070 15/10 A3010 RMK AO2 T01470099


Station Type Date Time Source
KPRO Decoded METAR 2021/05/14 21:55 UTC NOAA

Station name not available
May 14, 2021 - 05:55 PM EDT / 2021.05.14 2155 UTC
Wind: from the SE (140 degrees) at 15 MPH (13 KT):0
Visibility: 10 mile(s):0
Sky conditions: mostly cloudy
Temperature: 58.5 F (14.7 C)
Dew Point: 49.8 F (9.9 C)
Relative Humidity: 72%
Pressure (altimeter): 30.1 in. Hg (1019 hPa)
ob: KPRO 142155Z AUTO 14013KT 10SM BKN050 BKN070 15/10 A3010 RMK AO2 T01470099
cycle: 22

Station Type Date Time Source
KPRO TAF UTC NOAA

Error!

Example: see airport list